sensor_id;sensor_type;location;lat;lon;timestamp;pressure;altitude;pressure_sealevel;temperature;humidity
25650;BME280;13505;45.196;5.696;2022-09-14T06:10:02;98684.56;;;22.22;90.02
25650;BME280;13505;45.196;5.696;2022-09-14T06:14:53;98681.41;;;22.00;94.59
25650;BME280;13505;45.196;5.696;2022-09-14T06:19:43;98698.84;;;22.23;93.33
25650;BME280;13505;45.196;5.696;2022-09-14T06:24:34;98721.34;;;22.22;92.20
25650;BME280;13505;45.196;5.696;2022-09-14T06:29:24;98745.06;;;22.26;90.64
25650;BME280;13505;45.196;5.696;2022-09-14T06:34:15;98752.53;;;22.41;90.64
25650;BME280;13505;45.196;5.696;2022-09-14T06:39:05;98774.38;;;22.46;91.58
25650;BME280;13505;45.196;5.696;2022-09-14T06:43:57;98784.56;;;22.34;90.40
25650;BME280;13505;45.196;5.696;2022-09-14T06:48:50;98797.44;;;22.49;92.51
25650;BME280;13505;45.196;5.696;2022-09-14T06:53:41;98819.31;;;22.54;89.78
25650;BME280;13505;45.196;5.696;2022-09-14T06:58:32;98781.56;;;22.90;89.73
25650;BME280;13505;45.196;5.696;2022-09-14T07:03:23;98738.53;;;22.55;90.64
25650;BME280;13505;45.196;5.696;2022-09-14T07:08:13;98704.38;;;22.48;93.72
25650;BME280;13505;45.196;5.696;2022-09-14T07:13:03;98700.44;;;22.60;92.32
25650;BME280;13505;45.196;5.696;2022-09-14T07:17:54;98675.75;;;22.99;90.25
25650;BME280;13505;45.196;5.696;2022-09-14T07:22:44;98675.00;;;22.81;88.15
25650;BME280;13505;45.196;5.696;2022-09-14T07:27:35;98653.72;;;22.53;90.36
25650;BME280;13505;45.196;5.696;2022-09-14T07:32:28;98654.09;;;22.05;95.28
25650;BME280;13505;45.196;5.696;2022-09-14T07:37:18;98639.38;;;22.09;96.33
25650;BME280;13505;45.196;5.696;2022-09-14T07:42:09;98631.81;;;21.86;100.00
25650;BME280;13505;45.196;5.696;2022-09-14T07:46:59;98630.44;;;21.64;100.00
25650;BME280;13505;45.196;5.696;2022-09-14T07:51:51;98644.47;;;21.58;100.00
25650;BME280;13505;45.196;5.696;2022-09-14T07:56:42;98633.19;;;21.54;100.00
25650;BME280;13505;45.196;5.696;2022-09-14T08:01:32;98637.50;;;21.29;100.00
25650;BME280;13505;45.196;5.696;2022-09-14T08:06:24;98629.75;;;21.44;100.00
25650;BME280;13505;45.196;5.696;2022-09-14T08:11:41;98629.44;;;21.11;99.52
25650;BME280;13505;45.196;5.696;2022-09-14T08:16:33;98608.97;;;21.64;95.55
25650;BME280;13505;45.196;5.696;2022-09-14T08:21:24;98595.16;;;21.59;95.36
25650;BME280;13505;45.196;5.696;2022-09-14T08:26:20;98585.84;;;21.63;96.05
25650;BME280;13505;45.196;5.696;2022-09-14T08:31:13;98570.72;;;21.62;93.36
25650;BME280;13505;45.196;5.696;2022-09-14T08:36:08;98581.06;;;21.75;90.43
25650;BME280;13505;45.196;5.696;2022-09-14T08:46:02;98563.94;;;22.02;94.27
25650;BME280;13505;45.196;5.696;2022-09-14T08:50:53;98558.91;;;21.99;98.15
25650;BME280;13505;45.196;5.696;2022-09-14T08:55:51;98551.44;;;21.85;99.62
25650;BME280;13505;45.196;5.696;2022-09-14T09:00:51;98542.34;;;22.47;88.66
25650;BME280;13505;45.196;5.696;2022-09-14T09:06:17;98544.69;;;22.07;96.10
25650;BME280;13505;45.196;5.696;2022-09-14T09:11:20;98540.22;;;22.16;95.44
25650;BME280;13505;45.196;5.696;2022-09-14T09:16:16;98534.13;;;22.49;90.48
25650;BME280;13505;45.196;5.696;2022-09-14T09:21:21;98531.19;;;22.93;86.87
25650;BME280;13505;45.196;5.696;2022-09-14T09:26:22;98526.84;;;23.25;80.14
25650;BME280;13505;45.196;5.696;2022-09-14T09:31:17;98515.13;;;24.16;75.77
25650;BME280;13505;45.196;5.696;2022-09-14T09:36:12;98507.03;;;24.56;71.00
25650;BME280;13505;45.196;5.696;2022-09-14T09:41:10;98508.25;;;24.77;67.74
25650;BME280;13505;45.196;5.696;2022-09-14T09:46:03;98503.28;;;25.12;63.97
25650;BME280;13505;45.196;5.696;2022-09-14T09:55:48;98496.00;;;26.19;61.05
25650;BME280;13505;45.196;5.696;2022-09-14T10:00:38;98484.06;;;25.54;61.86
25650;BME280;13505;45.196;5.696;2022-09-14T10:05:29;98469.97;;;25.05;65.49
25650;BME280;13505;45.196;5.696;2022-09-14T10:10:39;98471.78;;;24.89;63.86
25650;BME280;13505;45.196;5.696;2022-09-14T10:15:33;98465.47;;;24.97;64.56
25650;BME280;13505;45.196;5.696;2022-09-14T10:20:24;98472.16;;;24.86;67.18
25650;BME280;13505;45.196;5.696;2022-09-14T10:30:11;98451.56;;;25.08;64.39
25650;BME280;13505;45.196;5.696;2022-09-14T10:35:10;98460.06;;;25.20;63.70
25650;BME280;13505;45.196;5.696;2022-09-14T10:40:17;98431.59;;;25.33;61.42
25650;BME280;13505;45.196;5.696;2022-09-14T10:45:33;98435.59;;;25.37;60.30
25650;BME280;13505;45.196;5.696;2022-09-14T10:50:37;98412.75;;;25.63;62.37
25650;BME280;13505;45.196;5.696;2022-09-14T11:00:24;98429.69;;;25.72;62.29
25650;BME280;13505;45.196;5.696;2022-09-14T11:05:29;98419.84;;;25.64;61.67
25650;BME280;13505;45.196;5.696;2022-09-14T11:15:26;98429.88;;;25.70;58.18
25650;BME280;13505;45.196;5.696;2022-09-14T11:20:28;98455.47;;;25.89;56.29
25650;BME280;13505;45.196;5.696;2022-09-14T11:25:25;98445.66;;;26.18;49.55
25650;BME280;13505;45.196;5.696;2022-09-14T11:30:19;98458.41;;;26.61;46.23
25650;BME280;13505;45.196;5.696;2022-09-14T11:35:27;98473.69;;;27.13;44.12
25650;BME280;13505;45.196;5.696;2022-09-14T11:45:41;98453.91;;;27.69;41.59
25650;BME280;13505;45.196;5.696;2022-09-14T11:50:34;98444.56;;;27.72;41.43
25650;BME280;13505;45.196;5.696;2022-09-14T11:55:25;98433.59;;;27.87;41.32
25650;BME280;13505;45.196;5.696;2022-09-14T12:10:16;98413.78;;;27.86;39.62
25650;BME280;13505;45.196;5.696;2022-09-14T12:25:27;98385.50;;;28.03;40.47
25650;BME280;13505;45.196;5.696;2022-09-14T12:35:45;98389.50;;;28.13;37.88
25650;BME280;13505;45.196;5.696;2022-09-14T12:40:36;98398.13;;;28.24;37.39
25650;BME280;13505;45.196;5.696;2022-09-14T12:45:50;98401.72;;;28.58;37.49
25650;BME280;13505;45.196;5.696;2022-09-14T12:50:41;98395.88;;;28.41;37.28
25650;BME280;13505;45.196;5.696;2022-09-14T13:00:26;98379.41;;;28.63;39.38
25650;BME280;13505;45.196;5.696;2022-09-14T13:05:20;98380.44;;;28.41;37.95
25650;BME280;13505;45.196;5.696;2022-09-14T13:10:45;98375.44;;;28.52;37.89
25650;BME280;13505;45.196;5.696;2022-09-14T13:15:47;98377.75;;;28.48;38.42
25650;BME280;13505;45.196;5.696;2022-09-14T13:20:39;98392.13;;;28.49;38.14
25650;BME280;13505;45.196;5.696;2022-09-14T13:25:32;98387.13;;;28.46;38.43
25650;BME280;13505;45.196;5.696;2022-09-14T13:30:24;98389.38;;;28.35;37.27
25650;BME280;13505;45.196;5.696;2022-09-14T13:35:32;98388.13;;;28.31;37.82
25650;BME280;13505;45.196;5.696;2022-09-14T13:40:25;98372.09;;;28.50;38.64
25650;BME280;13505;45.196;5.696;2022-09-14T13:45:21;98375.63;;;28.37;38.69
25650;BME280;13505;45.196;5.696;2022-09-14T13:50:11;98369.81;;;28.47;38.22
25650;BME280;13505;45.196;5.696;2022-09-14T14:00:18;98351.25;;;28.64;37.58
25650;BME280;13505;45.196;5.696;2022-09-14T14:05:20;98348.53;;;28.64;37.74
25650;BME280;13505;45.196;5.696;2022-09-14T14:10:27;98357.47;;;28.51;38.40
25650;BME280;13505;45.196;5.696;2022-09-14T14:20:32;98343.09;;;28.64;38.10
25650;BME280;13505;45.196;5.696;2022-09-14T14:25:33;98343.72;;;28.73;39.00
25650;BME280;13505;45.196;5.696;2022-09-14T14:30:24;98340.19;;;28.72;40.46
25650;BME280;13505;45.196;5.696;2022-09-14T14:35:18;98336.84;;;28.56;38.19
25650;BME280;13505;45.196;5.696;2022-09-14T14:40:12;98333.91;;;28.65;39.13
25650;BME280;13505;45.196;5.696;2022-09-14T14:45:03;98334.34;;;28.68;37.30
25650;BME280;13505;45.196;5.696;2022-09-14T14:49:53;98331.84;;;28.80;37.97
25650;BME280;13505;45.196;5.696;2022-09-14T14:54:43;98324.31;;;28.62;37.89
25650;BME280;13505;45.196;5.696;2022-09-14T14:59:34;98321.59;;;28.49;37.91
25650;BME280;13505;45.196;5.696;2022-09-14T15:04:24;98322.03;;;28.39;39.10
25650;BME280;13505;45.196;5.696;2022-09-14T15:09:26;98318.19;;;28.06;38.60
25650;BME280;13505;45.196;5.696;2022-09-14T15:14:18;98303.41;;;28.02;39.10
25650;BME280;13505;45.196;5.696;2022-09-14T15:19:09;98301.06;;;27.85;40.21
25650;BME280;13505;45.196;5.696;2022-09-14T15:24:00;98301.47;;;27.89;39.42
25650;BME280;13505;45.196;5.696;2022-09-14T15:28:50;98306.28;;;27.87;38.85
25650;BME280;13505;45.196;5.696;2022-09-14T15:33:41;98292.09;;;27.78;39.02
25650;BME280;13505;45.196;5.696;2022-09-14T15:38:31;98301.44;;;27.76;38.61
25650;BME280;13505;45.196;5.696;2022-09-14T15:43:22;98294.19;;;27.83;40.06
25650;BME280;13505;45.196;5.696;2022-09-14T15:48:13;98301.66;;;27.81;38.89
25650;BME280;13505;45.196;5.696;2022-09-14T15:53:04;98303.75;;;27.79;38.71
25650;BME280;13505;45.196;5.696;2022-09-14T15:57:54;98311.66;;;27.74;38.83
25650;BME280;13505;45.196;5.696;2022-09-14T16:02:48;98309.72;;;27.61;38.52
25650;BME280;13505;45.196;5.696;2022-09-14T16:07:38;98326.03;;;27.74;39.09
25650;BME280;13505;45.196;5.696;2022-09-14T16:12:28;98332.47;;;27.66;38.64
25650;BME280;13505;45.196;5.696;2022-09-14T16:17:19;98327.44;;;27.56;38.32
25650;BME280;13505;45.196;5.696;2022-09-14T16:22:09;98325.34;;;27.58;37.97
25650;BME280;13505;45.196;5.696;2022-09-14T16:27:00;98335.91;;;27.53;38.29
25650;BME280;13505;45.196;5.696;2022-09-14T16:31:52;98332.53;;;27.44;38.55
25650;BME280;13505;45.196;5.696;2022-09-14T16:36:43;98325.22;;;27.38;38.90
25650;BME280;13505;45.196;5.696;2022-09-14T16:41:34;98309.38;;;27.35;39.71
25650;BME280;13505;45.196;5.696;2022-09-14T16:46:28;98315.56;;;27.29;38.67
25650;BME280;13505;45.196;5.696;2022-09-14T16:51:21;98312.09;;;27.35;38.93
25650;BME280;13505;45.196;5.696;2022-09-14T16:56:21;98319.53;;;27.26;39.38
25650;BME280;13505;45.196;5.696;2022-09-14T17:01:16;98313.22;;;27.12;39.43
25650;BME280;13505;45.196;5.696;2022-09-14T17:06:11;98311.81;;;27.23;38.94
25650;BME280;13505;45.196;5.696;2022-09-14T17:11:02;98300.13;;;27.16;39.92
25650;BME280;13505;45.196;5.696;2022-09-14T17:16:03;98308.00;;;27.11;39.39
25650;BME280;13505;45.196;5.696;2022-09-14T17:20:56;98297.53;;;27.01;39.49
25650;BME280;13505;45.196;5.696;2022-09-14T17:25:47;98295.31;;;27.11;39.75
25650;BME280;13505;45.196;5.696;2022-09-14T17:30:38;98309.44;;;27.07;39.60
25650;BME280;13505;45.196;5.696;2022-09-14T17:35:29;98286.75;;;27.08;39.96
25650;BME280;13505;45.196;5.696;2022-09-14T17:40:19;98294.84;;;27.01;39.92
25650;BME280;13505;45.196;5.696;2022-09-14T17:45:10;98288.34;;;26.95;40.64
25650;BME280;13505;45.196;5.696;2022-09-14T17:50:01;98300.66;;;26.98;40.26
25650;BME280;13505;45.196;5.696;2022-09-14T17:54:51;98294.56;;;26.96;40.57
25650;BME280;13505;45.196;5.696;2022-09-14T17:59:41;98306.97;;;27.12;39.92
25650;BME280;13505;45.196;5.696;2022-09-14T18:04:32;98311.50;;;27.05;40.46
25650;BME280;13505;45.196;5.696;2022-09-14T18:09:22;98316.44;;;26.94;40.60
25650;BME280;13505;45.196;5.696;2022-09-14T18:14:14;98323.59;;;26.80;41.29
25650;BME280;13505;45.196;5.696;2022-09-14T18:19:05;98311.81;;;26.88;41.66
25650;BME280;13505;45.196;5.696;2022-09-14T18:23:55;98297.34;;;26.81;42.19
25650;BME280;13505;45.196;5.696;2022-09-14T18:28:46;98305.78;;;26.64;41.80
25650;BME280;13505;45.196;5.696;2022-09-14T18:33:45;98296.63;;;26.65;41.80
25650;BME280;13505;45.196;5.696;2022-09-14T18:38:36;98311.59;;;26.61;41.74
25650;BME280;13505;45.196;5.696;2022-09-14T18:43:26;98319.72;;;26.61;43.15
25650;BME280;13505;45.196;5.696;2022-09-14T18:48:16;98318.59;;;26.33;42.47
25650;BME280;13505;45.196;5.696;2022-09-14T18:53:07;98320.59;;;26.46;41.59
25650;BME280;13505;45.196;5.696;2022-09-14T18:57:57;98323.03;;;26.63;41.72
25650;BME280;13505;45.196;5.696;2022-09-14T19:02:52;98318.63;;;26.55;41.88
25650;BME280;13505;45.196;5.696;2022-09-14T19:07:42;98314.63;;;26.80;40.79
25650;BME280;13505;45.196;5.696;2022-09-14T19:12:33;98317.84;;;26.90;40.62
25650;BME280;13505;45.196;5.696;2022-09-14T19:17:23;98302.94;;;27.01;39.97
25650;BME280;13505;45.196;5.696;2022-09-14T19:22:13;98335.50;;;26.86;42.53
25650;BME280;13505;45.196;5.696;2022-09-14T19:27:04;98320.56;;;26.40;44.02
25650;BME280;13505;45.196;5.696;2022-09-14T19:31:54;98328.16;;;26.14;49.42
25650;BME280;13505;45.196;5.696;2022-09-14T19:36:45;98365.78;;;25.94;52.79
25650;BME280;13505;45.196;5.696;2022-09-14T19:41:36;98439.66;;;25.56;56.87
25650;BME280;13505;45.196;5.696;2022-09-14T19:46:27;98434.59;;;25.23;59.58
25650;BME280;13505;45.196;5.696;2022-09-14T19:51:20;98393.84;;;24.94;59.82
25650;BME280;13505;45.196;5.696;2022-09-14T19:56:13;98422.13;;;24.84;60.97
25650;BME280;13505;45.196;5.696;2022-09-14T20:01:04;98459.28;;;24.65;61.36
25650;BME280;13505;45.196;5.696;2022-09-14T20:06:06;98412.69;;;24.33;64.13
25650;BME280;13505;45.196;5.696;2022-09-14T20:11:08;98446.72;;;24.25;62.93
25650;BME280;13505;45.196;5.696;2022-09-14T20:15:59;98531.81;;;24.11;60.95
25650;BME280;13505;45.196;5.696;2022-09-14T20:20:57;98553.19;;;24.05;60.33
25650;BME280;13505;45.196;5.696;2022-09-14T20:25:47;98577.47;;;23.88;59.39
25650;BME280;13505;45.196;5.696;2022-09-14T20:30:38;98598.84;;;23.81;58.94
25650;BME280;13505;45.196;5.696;2022-09-14T20:35:28;98587.22;;;23.81;58.79
25650;BME280;13505;45.196;5.696;2022-09-14T20:40:19;98566.03;;;23.69;57.58
25650;BME280;13505;45.196;5.696;2022-09-14T20:45:09;98580.88;;;23.65;57.34
25650;BME280;13505;45.196;5.696;2022-09-14T20:50:00;98619.53;;;23.73;56.66
25650;BME280;13505;45.196;5.696;2022-09-14T20:54:50;98640.25;;;23.64;56.68
25650;BME280;13505;45.196;5.696;2022-09-14T20:59:40;98665.47;;;23.54;57.05
25650;BME280;13505;45.196;5.696;2022-09-14T21:04:33;98703.56;;;23.25;58.34
25650;BME280;13505;45.196;5.696;2022-09-14T21:09:24;98741.63;;;23.04;60.29
25650;BME280;13505;45.196;5.696;2022-09-14T21:14:16;98763.66;;;22.72;65.24
25650;BME280;13505;45.196;5.696;2022-09-14T21:19:11;98795.22;;;21.71;72.25
25650;BME280;13505;45.196;5.696;2022-09-14T21:24:01;98787.56;;;21.77;72.04
25650;BME280;13505;45.196;5.696;2022-09-14T21:28:57;98789.34;;;21.68;71.08
25650;BME280;13505;45.196;5.696;2022-09-14T21:33:50;98817.75;;;21.51;73.40
25650;BME280;13505;45.196;5.696;2022-09-14T21:38:41;98804.31;;;21.60;72.60
25650;BME280;13505;45.196;5.696;2022-09-14T21:43:37;98820.94;;;21.46;73.39
25650;BME280;13505;45.196;5.696;2022-09-14T21:48:28;98836.72;;;21.49;72.86
25650;BME280;13505;45.196;5.696;2022-09-14T21:53:18;98842.47;;;21.26;76.70
25650;BME280;13505;45.196;5.696;2022-09-14T21:58:09;98848.63;;;20.99;80.28
